sensor_id;sensor_type;location;lat;lon;timestamp;pressure;altitude;pressure_sealevel;temperature;humidity
65880;BME280;52661;51.364;6.054;2023-04-15T00:02:15;100345.66;;;8.53;100.00
65880;BME280;52661;51.364;6.054;2023-04-15T00:04:42;100359.56;;;8.52;100.00
65880;BME280;52661;51.364;6.054;2023-04-15T00:07:07;100342.97;;;8.53;100.00
65880;BME280;52661;51.364;6.054;2023-04-15T00:09:32;100351.44;;;8.52;100.00
65880;BME280;52661;51.364;6.054;2023-04-15T00:11:58;100353.00;;;8.53;100.00
65880;BME280;52661;51.364;6.054;2023-04-15T00:14:23;100344.91;;;8.74;100.00
65880;BME280;52661;51.364;6.054;2023-04-15T00:16:49;100343.38;;;8.83;99.18
65880;BME280;52661;51.364;6.054;2023-04-15T00:19:19;100351.50;;;8.98;98.31
65880;BME280;52661;51.364;6.054;2023-04-15T00:21:44;100349.56;;;8.91;99.22
65880;BME280;52661;51.364;6.054;2023-04-15T00:24:10;100336.03;;;8.87;99.80
65880;BME280;52661;51.364;6.054;2023-04-15T00:26:35;100340.28;;;8.88;99.61
65880;BME280;52661;51.364;6.054;2023-04-15T00:29:01;100351.91;;;8.89;99.19
65880;BME280;52661;51.364;6.054;2023-04-15T00:31:26;100344.56;;;8.82;99.13
65880;BME280;52661;51.364;6.054;2023-04-15T00:33:51;100344.56;;;8.89;98.29
65880;BME280;52661;51.364;6.054;2023-04-15T00:36:17;100346.88;;;8.91;97.89
65880;BME280;52661;51.364;6.054;2023-04-15T00:38:42;100349.56;;;8.91;97.57
65880;BME280;52661;51.364;6.054;2023-04-15T00:41:08;100350.72;;;8.79;97.61
65880;BME280;52661;51.364;6.054;2023-04-15T00:43:34;100343.38;;;8.83;98.23
65880;BME280;52661;51.364;6.054;2023-04-15T00:46:00;100351.13;;;8.88;96.68
65880;BME280;52661;51.364;6.054;2023-04-15T00:48:27;100342.59;;;8.83;97.44
65880;BME280;52661;51.364;6.054;2023-04-15T00:50:53;100345.28;;;8.76;97.37
65880;BME280;52661;51.364;6.054;2023-04-15T00:53:19;100341.78;;;8.65;97.80
65880;BME280;52661;51.364;6.054;2023-04-15T00:55:44;100338.34;;;8.61;97.99
65880;BME280;52661;51.364;6.054;2023-04-15T00:58:09;100340.28;;;8.67;97.40
65880;BME280;52661;51.364;6.054;2023-04-15T01:00:35;100351.78;;;8.43;98.67
65880;BME280;52661;51.364;6.054;2023-04-15T01:03:01;100354.91;;;8.42;98.36
65880;BME280;52661;51.364;6.054;2023-04-15T01:05:27;100347.97;;;8.51;97.24
65880;BME280;52661;51.364;6.054;2023-04-15T01:07:52;100352.56;;;8.36;97.51
65880;BME280;52661;51.364;6.054;2023-04-15T01:10:19;100343.59;;;8.25;98.07
65880;BME280;52661;51.364;6.054;2023-04-15T01:12:44;100348.22;;;8.21;98.84
65880;BME280;52661;51.364;6.054;2023-04-15T01:15:09;100344.78;;;8.24;98.54
65880;BME280;52661;51.364;6.054;2023-04-15T01:17:35;100349.03;;;8.29;99.52
65880;BME280;52661;51.364;6.054;2023-04-15T01:20:01;100343.22;;;8.20;100.00
65880;BME280;52661;51.364;6.054;2023-04-15T01:22:27;100337.78;;;8.13;100.00
65880;BME280;52661;51.364;6.054;2023-04-15T01:25:03;100333.84;;;8.03;100.00
65880;BME280;52661;51.364;6.054;2023-04-15T01:27:30;100340.03;;;8.00;100.00
65880;BME280;52661;51.364;6.054;2023-04-15T01:29:56;100347.75;;;7.98;100.00
65880;BME280;52661;51.364;6.054;2023-04-15T01:32:21;100350.47;;;8.02;100.00
65880;BME280;52661;51.364;6.054;2023-04-15T01:34:46;100343.56;;;8.15;100.00
65880;BME280;52661;51.364;6.054;2023-04-15T01:37:12;100337.78;;;8.16;100.00
65880;BME280;52661;51.364;6.054;2023-04-15T01:39:37;100343.16;;;8.09;100.00
65880;BME280;52661;51.364;6.054;2023-04-15T01:42:03;100349.31;;;7.99;100.00
65880;BME280;52661;51.364;6.054;2023-04-15T01:44:28;100338.47;;;7.96;100.00
65880;BME280;52661;51.364;6.054;2023-04-15T01:46:54;100352.31;;;7.83;100.00
65880;BME280;52661;51.364;6.054;2023-04-15T01:49:19;100339.00;;;7.54;100.00
65880;BME280;52661;51.364;6.054;2023-04-15T01:51:44;100338.22;;;7.50;100.00
65880;BME280;52661;51.364;6.054;2023-04-15T01:54:10;100340.47;;;7.40;100.00
65880;BME280;52661;51.364;6.054;2023-04-15T01:56:35;100341.59;;;7.36;100.00
65880;BME280;52661;51.364;6.054;2023-04-15T01:59:00;100347.38;;;7.34;100.00
65880;BME280;52661;51.364;6.054;2023-04-15T02:01:26;100346.94;;;7.29;100.00
65880;BME280;52661;51.364;6.054;2023-04-15T02:03:51;100346.91;;;7.25;100.00
65880;BME280;52661;51.364;6.054;2023-04-15T02:06:16;100341.84;;;7.17;100.00
65880;BME280;52661;51.364;6.054;2023-04-15T02:08:42;100342.22;;;7.15;100.00
65880;BME280;52661;51.364;6.054;2023-04-15T02:11:08;100346.63;;;7.34;100.00
65880;BME280;52661;51.364;6.054;2023-04-15T02:13:33;100345.94;;;7.51;100.00
65880;BME280;52661;51.364;6.054;2023-04-15T02:15:58;100340.19;;;7.60;100.00
65880;BME280;52661;51.364;6.054;2023-04-15T02:18:24;100353.00;;;7.70;100.00
65880;BME280;52661;51.364;6.054;2023-04-15T02:20:51;100351.09;;;7.70;100.00
65880;BME280;52661;51.364;6.054;2023-04-15T02:23:16;100355.66;;;7.59;100.00
65880;BME280;52661;51.364;6.054;2023-04-15T02:25:41;100346.38;;;7.60;100.00
65880;BME280;52661;51.364;6.054;2023-04-15T02:28:07;100360.28;;;7.59;100.00
65880;BME280;52661;51.364;6.054;2023-04-15T02:30:32;100352.09;;;7.48;100.00
65880;BME280;52661;51.364;6.054;2023-04-15T02:32:58;100352.72;;;7.31;100.00
65880;BME280;52661;51.364;6.054;2023-04-15T02:35:24;100361.94;;;7.23;100.00
65880;BME280;52661;51.364;6.054;2023-04-15T02:37:50;100357.72;;;7.25;100.00
65880;BME280;52661;51.364;6.054;2023-04-15T02:40:16;100357.69;;;7.22;100.00
65880;BME280;52661;51.364;6.054;2023-04-15T02:42:41;100359.16;;;7.12;100.00
65880;BME280;52661;51.364;6.054;2023-04-15T02:45:08;100368.34;;;7.04;100.00
65880;BME280;52661;51.364;6.054;2023-04-15T02:47:34;100362.50;;;6.99;100.00
65880;BME280;52661;51.364;6.054;2023-04-15T02:50:02;100365.16;;;6.95;100.00
65880;BME280;52661;51.364;6.054;2023-04-15T02:52:27;100369.69;;;6.84;100.00
65880;BME280;52661;51.364;6.054;2023-04-15T02:54:53;100372.63;;;6.68;100.00
65880;BME280;52661;51.364;6.054;2023-04-15T02:57:21;100377.31;;;6.75;100.00
65880;BME280;52661;51.364;6.054;2023-04-15T02:59:47;100374.63;;;6.75;100.00
65880;BME280;52661;51.364;6.054;2023-04-15T03:02:12;100372.66;;;6.72;100.00
65880;BME280;52661;51.364;6.054;2023-04-15T03:04:37;100372.66;;;6.72;100.00
65880;BME280;52661;51.364;6.054;2023-04-15T03:07:03;100372.22;;;6.66;100.00
65880;BME280;52661;51.364;6.054;2023-04-15T03:09:29;100369.91;;;6.65;100.00
65880;BME280;52661;51.364;6.054;2023-04-15T03:11:54;100376.44;;;6.64;100.00
65880;BME280;52661;51.364;6.054;2023-04-15T03:14:21;100366.06;;;6.69;100.00
65880;BME280;52661;51.364;6.054;2023-04-15T03:16:46;100376.06;;;6.65;100.00
65880;BME280;52661;51.364;6.054;2023-04-15T03:19:12;100368.19;;;6.50;100.00
65880;BME280;52661;51.364;6.054;2023-04-15T03:21:37;100366.88;;;6.33;100.00
65880;BME280;52661;51.364;6.054;2023-04-15T03:24:02;100371.16;;;6.41;100.00
65880;BME280;52661;51.364;6.054;2023-04-15T03:26:29;100374.16;;;6.32;100.00
65880;BME280;52661;51.364;6.054;2023-04-15T03:28:55;100381.75;;;6.23;100.00
65880;BME280;52661;51.364;6.054;2023-04-15T03:31:21;100374.72;;;6.15;100.00
65880;BME280;52661;51.364;6.054;2023-04-15T03:33:46;100380.47;;;6.14;100.00
65880;BME280;52661;51.364;6.054;2023-04-15T03:36:11;100389.13;;;5.97;100.00
65880;BME280;52661;51.364;6.054;2023-04-15T03:38:36;100383.88;;;6.07;100.00
65880;BME280;52661;51.364;6.054;2023-04-15T03:41:02;100393.66;;;6.22;100.00
65880;BME280;52661;51.364;6.054;2023-04-15T03:43:27;100393.44;;;6.34;100.00
65880;BME280;52661;51.364;6.054;2023-04-15T03:45:52;100400.50;;;6.46;100.00
65880;BME280;52661;51.364;6.054;2023-04-15T03:48:18;100397.44;;;6.48;100.00
65880;BME280;52661;51.364;6.054;2023-04-15T03:50:43;100394.72;;;6.48;100.00
65880;BME280;52661;51.364;6.054;2023-04-15T03:53:09;100395.44;;;6.41;100.00
65880;BME280;52661;51.364;6.054;2023-04-15T03:55:34;100397.78;;;6.42;100.00
65880;BME280;52661;51.364;6.054;2023-04-15T03:58:00;100398.09;;;6.37;100.00
65880;BME280;52661;51.364;6.054;2023-04-15T04:00:25;100401.13;;;6.32;100.00
65880;BME280;52661;51.364;6.054;2023-04-15T04:02:50;100400.38;;;6.35;100.00
65880;BME280;52661;51.364;6.054;2023-04-15T04:05:16;100401.91;;;6.33;100.00
65880;BME280;52661;51.364;6.054;2023-04-15T04:07:41;100404.13;;;6.27;100.00
65880;BME280;52661;51.364;6.054;2023-04-15T04:10:07;100414.19;;;6.30;100.00
65880;BME280;52661;51.364;6.054;2023-04-15T04:12:32;100422.03;;;6.42;100.00
65880;BME280;52661;51.364;6.054;2023-04-15T04:14:57;100413.53;;;6.40;100.00
65880;BME280;52661;51.364;6.054;2023-04-15T04:17:23;100423.03;;;6.31;100.00
65880;BME280;52661;51.364;6.054;2023-04-15T04:19:48;100428.84;;;6.33;100.00
65880;BME280;52661;51.364;6.054;2023-04-15T04:22:13;100433.00;;;6.27;100.00
65880;BME280;52661;51.364;6.054;2023-04-15T04:24:39;100427.94;;;6.22;100.00
65880;BME280;52661;51.364;6.054;2023-04-15T04:27:04;100437.34;;;6.35;100.00
65880;BME280;52661;51.364;6.054;2023-04-15T04:29:29;100441.13;;;6.30;100.00
65880;BME280;52661;51.364;6.054;2023-04-15T04:31:55;100441.94;;;6.34;100.00
65880;BME280;52661;51.364;6.054;2023-04-15T04:34:20;100440.53;;;6.44;100.00
65880;BME280;52661;51.364;6.054;2023-04-15T04:36:45;100449.06;;;6.50;100.00
65880;BME280;52661;51.364;6.054;2023-04-15T04:39:11;100452.88;;;6.45;100.00
65880;BME280;52661;51.364;6.054;2023-04-15T04:41:36;100456.28;;;6.42;100.00
65880;BME280;52661;51.364;6.054;2023-04-15T04:44:01;100463.28;;;6.47;100.00
65880;BME280;52661;51.364;6.054;2023-04-15T04:46:27;100461.81;;;6.53;100.00
65880;BME280;52661;51.364;6.054;2023-04-15T04:48:53;100465.13;;;6.39;100.00
65880;BME280;52661;51.364;6.054;2023-04-15T04:51:18;100469.03;;;6.45;100.00
65880;BME280;52661;51.364;6.054;2023-04-15T04:53:43;100465.81;;;6.32;100.00
65880;BME280;52661;51.364;6.054;2023-04-15T04:56:09;100468.41;;;6.25;100.00
65880;BME280;52661;51.364;6.054;2023-04-15T04:58:34;100483.84;;;6.28;100.00
65880;BME280;52661;51.364;6.054;2023-04-15T05:01:00;100479.84;;;6.19;100.00
65880;BME280;52661;51.364;6.054;2023-04-15T05:03:25;100480.91;;;6.11;100.00
65880;BME280;52661;51.364;6.054;2023-04-15T05:05:51;100478.28;;;6.14;100.00
65880;BME280;52661;51.364;6.054;2023-04-15T05:08:16;100484.59;;;6.25;100.00
65880;BME280;52661;51.364;6.054;2023-04-15T05:10:42;100489.94;;;6.22;100.00
65880;BME280;52661;51.364;6.054;2023-04-15T05:13:07;100499.63;;;6.30;100.00
65880;BME280;52661;51.364;6.054;2023-04-15T05:15:32;100500.31;;;6.23;100.00
65880;BME280;52661;51.364;6.054;2023-04-15T05:18:00;100500.41;;;6.30;100.00
65880;BME280;52661;51.364;6.054;2023-04-15T05:20:26;100508.84;;;6.25;100.00
65880;BME280;52661;51.364;6.054;2023-04-15T05:22:51;100500.41;;;6.30;100.00
65880;BME280;52661;51.364;6.054;2023-04-15T05:25:16;100499.78;;;6.40;100.00
65880;BME280;52661;51.364;6.054;2023-04-15T05:27:42;100505.66;;;6.46;100.00
65880;BME280;52661;51.364;6.054;2023-04-15T05:30:07;100514.59;;;6.54;100.00
65880;BME280;52661;51.364;6.054;2023-04-15T05:32:33;100506.56;;;6.57;100.00
65880;BME280;52661;51.364;6.054;2023-04-15T05:34:59;100509.34;;;6.64;100.00
65880;BME280;52661;51.364;6.054;2023-04-15T05:37:24;100510.47;;;6.63;100.00
65880;BME280;52661;51.364;6.054;2023-04-15T05:39:50;100513.75;;;6.76;100.00
65880;BME280;52661;51.364;6.054;2023-04-15T05:42:16;100519.19;;;6.79;100.00
65880;BME280;52661;51.364;6.054;2023-04-15T05:44:42;100521.50;;;6.81;100.00
65880;BME280;52661;51.364;6.054;2023-04-15T05:47:07;100525.09;;;6.92;100.00
65880;BME280;52661;51.364;6.054;2023-04-15T05:49:34;100530.69;;;7.10;100.00
65880;BME280;52661;51.364;6.054;2023-04-15T05:51:59;100545.06;;;7.21;100.00
65880;BME280;52661;51.364;6.054;2023-04-15T05:54:24;100539.34;;;7.26;100.00
65880;BME280;52661;51.364;6.054;2023-04-15T05:56:51;100543.59;;;7.23;100.00
65880;BME280;52661;51.364;6.054;2023-04-15T05:59:17;100543.97;;;7.25;100.00
65880;BME280;52661;51.364;6.054;2023-04-15T06:01:42;100551.72;;;7.27;100.00
65880;BME280;52661;51.364;6.054;2023-04-15T06:04:08;100555.16;;;7.27;100.00
65880;BME280;52661;51.364;6.054;2023-04-15T06:06:33;100558.38;;;7.36;100.00
65880;BME280;52661;51.364;6.054;2023-04-15T06:08:59;100567.59;;;7.35;100.00
65880;BME280;52661;51.364;6.054;2023-04-15T06:11:26;100570.72;;;7.37;100.00
65880;BME280;52661;51.364;6.054;2023-04-15T06:13:51;100569.94;;;7.37;100.00
65880;BME280;52661;51.364;6.054;2023-04-15T06:16:16;100573.75;;;7.32;100.00
65880;BME280;52661;51.364;6.054;2023-04-15T06:18:42;100580.00;;;7.40;100.00
65880;BME280;52661;51.364;6.054;2023-04-15T06:21:07;100583.13;;;7.46;100.00
65880;BME280;52661;51.364;6.054;2023-04-15T06:23:33;100589.34;;;7.50;100.00
65880;BME280;52661;51.364;6.054;2023-04-15T06:25:59;100599.38;;;7.49;100.00
65880;BME280;52661;51.364;6.054;2023-04-15T06:28:25;100595.25;;;7.59;100.00
65880;BME280;52661;51.364;6.054;2023-04-15T06:30:51;100602.19;;;7.60;100.00
65880;BME280;52661;51.364;6.054;2023-04-15T06:33:17;100597.63;;;7.67;100.00
65880;BME280;52661;51.364;6.054;2023-04-15T06:35:42;100607.72;;;7.70;100.00
65880;BME280;52661;51.364;6.054;2023-04-15T06:38:07;100606.22;;;7.76;100.00
65880;BME280;52661;51.364;6.054;2023-04-15T06:40:33;100611.66;;;7.80;100.00
65880;BME280;52661;51.364;6.054;2023-04-15T06:42:58;100615.19;;;7.84;100.00
65880;BME280;52661;51.364;6.054;2023-04-15T06:45:23;100627.22;;;7.93;100.00
65880;BME280;52661;51.364;6.054;2023-04-15T06:47:49;100631.88;;;7.97;100.00
65880;BME280;52661;51.364;6.054;2023-04-15T06:50:14;100625.38;;;8.01;100.00
65880;BME280;52661;51.364;6.054;2023-04-15T06:52:39;100636.56;;;8.03;100.00
65880;BME280;52661;51.364;6.054;2023-04-15T06:55:05;100638.88;;;8.01;100.00
65880;BME280;52661;51.364;6.054;2023-04-15T06:57:31;100645.84;;;8.02;100.00
65880;BME280;52661;51.364;6.054;2023-04-15T06:59:56;100643.16;;;8.02;100.00
65880;BME280;52661;51.364;6.054;2023-04-15T07:02:22;100648.50;;;7.99;100.00
65880;BME280;52661;51.364;6.054;2023-04-15T07:04:47;100658.13;;;7.96;100.00
65880;BME280;52661;51.364;6.054;2023-04-15T07:07:13;100655.41;;;7.96;100.00
65880;BME280;52661;51.364;6.054;2023-04-15T07:09:39;100660.16;;;8.03;100.00
65880;BME280;52661;51.364;6.054;2023-04-15T07:12:04;100657.47;;;8.06;100.00
65880;BME280;52661;51.364;6.054;2023-04-15T07:14:30;100669.81;;;8.07;100.00
65880;BME280;52661;51.364;6.054;2023-04-15T07:16:55;100670.66;;;8.15;100.00
65880;BME280;52661;51.364;6.054;2023-04-15T07:19:21;100676.50;;;8.17;100.00
65880;BME280;52661;51.364;6.054;2023-04-15T07:21:48;100683.03;;;8.16;100.00
65880;BME280;52661;51.364;6.054;2023-04-15T07:24:13;100677.28;;;8.17;100.00
65880;BME280;52661;51.364;6.054;2023-04-15T07:26:43;100689.69;;;8.25;100.00
65880;BME280;52661;51.364;6.054;2023-04-15T07:29:08;100696.34;;;8.31;100.00
65880;BME280;52661;51.364;6.054;2023-04-15T07:31:34;100703.28;;;8.32;100.00
65880;BME280;52661;51.364;6.054;2023-04-15T07:34:01;100702.97;;;8.37;100.00
65880;BME280;52661;51.364;6.054;2023-04-15T07:36:26;100711.09;;;8.41;100.00
65880;BME280;52661;51.364;6.054;2023-04-15T07:38:53;100721.59;;;8.46;100.00
65880;BME280;52661;51.364;6.054;2023-04-15T07:41:19;100718.13;;;8.49;100.00
65880;BME280;52661;51.364;6.054;2023-04-15T07:43:45;100725.84;;;8.47;100.00
65880;BME280;52661;51.364;6.054;2023-04-15T07:46:10;100725.09;;;8.50;100.00
65880;BME280;52661;51.364;6.054;2023-04-15T07:48:36;100730.16;;;8.55;100.00
65880;BME280;52661;51.364;6.054;2023-04-15T07:51:01;100745.66;;;8.62;100.00
65880;BME280;52661;51.364;6.054;2023-04-15T07:53:27;100735.69;;;8.69;100.00
65880;BME280;52661;51.364;6.054;2023-04-15T07:55:52;100737.22;;;8.67;100.00
65880;BME280;52661;51.364;6.054;2023-04-15T07:58:18;100740.34;;;8.72;100.00
65880;BME280;52661;51.364;6.054;2023-04-15T08:00:43;100752.00;;;8.80;100.00
65880;BME280;52661;51.364;6.054;2023-04-15T08:03:08;100750.88;;;8.84;100.00
65880;BME280;52661;51.364;6.054;2023-04-15T08:05:34;100750.59;;;8.97;100.00
65880;BME280;52661;51.364;6.054;2023-04-15T08:07:59;100756.03;;;9.00;100.00
65880;BME280;52661;51.364;6.054;2023-04-15T08:10:25;100766.09;;;9.00;100.00
65880;BME280;52661;51.364;6.054;2023-04-15T08:12:51;100760.31;;;9.08;100.00
65880;BME280;52661;51.364;6.054;2023-04-15T08:15:19;100758.47;;;9.19;100.00
65880;BME280;52661;51.364;6.054;2023-04-15T08:17:44;100771.66;;;9.24;100.00
65880;BME280;52661;51.364;6.054;2023-04-15T08:20:09;100767.44;;;9.30;100.00
65880;BME280;52661;51.364;6.054;2023-04-15T08:22:35;100765.91;;;9.33;100.00
65880;BME280;52661;51.364;6.054;2023-04-15T08:25:00;100762.88;;;9.45;100.00
65880;BME280;52661;51.364;6.054;2023-04-15T08:27:26;100772.56;;;9.50;100.00
65880;BME280;52661;51.364;6.054;2023-04-15T08:29:51;100777.53;;;9.40;100.00
65880;BME280;52661;51.364;6.054;2023-04-15T08:32:17;100774.94;;;9.55;100.00
65880;BME280;52661;51.364;6.054;2023-04-15T08:34:43;100771.06;;;9.59;100.00
65880;BME280;52661;51.364;6.054;2023-04-15T08:37:08;100783.50;;;9.67;100.00
65880;BME280;52661;51.364;6.054;2023-04-15T08:39:33;100785.84;;;9.65;100.00
65880;BME280;52661;51.364;6.054;2023-04-15T08:42:00;100782.75;;;9.70;100.00
65880;BME280;52661;51.364;6.054;2023-04-15T08:44:28;100783.19;;;9.79;100.00
65880;BME280;52661;51.364;6.054;2023-04-15T08:46:55;100795.97;;;9.82;100.00
65880;BME280;52661;51.364;6.054;2023-04-15T08:49:23;100791.34;;;9.90;100.00
65880;BME280;52661;51.364;6.054;2023-04-15T08:51:50;100792.16;;;9.98;100.00
65880;BME280;52661;51.364;6.054;2023-04-15T08:54:15;100791.84;;;10.17;100.00
65880;BME280;52661;51.364;6.054;2023-04-15T08:56:41;100795.34;;;10.21;100.00
65880;BME280;52661;51.364;6.054;2023-04-15T08:59:06;100795.00;;;10.40;100.00
65880;BME280;52661;51.364;6.054;2023-04-15T09:01:32;100803.56;;;10.56;100.00
65880;BME280;52661;51.364;6.054;2023-04-15T09:03:58;100809.38;;;10.51;100.00
65880;BME280;52661;51.364;6.054;2023-04-15T09:06:24;100812.06;;;10.41;100.00
65880;BME280;52661;51.364;6.054;2023-04-15T09:08:50;100821.00;;;10.45;100.00
65880;BME280;52661;51.364;6.054;2023-04-15T09:11:16;100828.34;;;10.37;100.00
65880;BME280;52661;51.364;6.054;2023-04-15T09:13:42;100824.03;;;10.25;100.00
65880;BME280;52661;51.364;6.054;2023-04-15T09:16:07;100829.84;;;10.27;100.00
65880;BME280;52661;51.364;6.054;2023-04-15T09:18:35;100825.97;;;10.21;100.00
65880;BME280;52661;51.364;6.054;2023-04-15T09:23:31;100834.16;;;10.43;100.00
65880;BME280;52661;51.364;6.054;2023-04-15T09:25:56;100839.59;;;10.46;100.00
65880;BME280;52661;51.364;6.054;2023-04-15T09:28:25;100849.31;;;10.58;100.00
65880;BME280;52661;51.364;6.054;2023-04-15T09:31:00;100849.31;;;10.54;100.00
65880;BME280;52661;51.364;6.054;2023-04-15T09:33:27;100856.31;;;10.59;100.00
65880;BME280;52661;51.364;6.054;2023-04-15T09:36:04;100859.00;;;10.52;100.00
65880;BME280;52661;51.364;6.054;2023-04-15T09:38:30;100855.50;;;10.51;100.00
65880;BME280;52661;51.364;6.054;2023-04-15T09:40:57;100858.63;;;10.57;100.00
65880;BME280;52661;51.364;6.054;2023-04-15T09:43:22;100857.09;;;10.63;100.00
65880;BME280;52661;51.364;6.054;2023-04-15T09:46:01;100859.81;;;10.66;100.00
65880;BME280;52661;51.364;6.054;2023-04-15T09:48:26;100865.25;;;10.66;100.00
65880;BME280;52661;51.364;6.054;2023-04-15T09:50:52;100866.03;;;10.67;100.00
65880;BME280;52661;51.364;6.054;2023-04-15T09:53:23;100868.75;;;10.81;100.00
65880;BME280;52661;51.364;6.054;2023-04-15T09:55:54;100869.94;;;10.83;100.00
65880;BME280;52661;51.364;6.054;2023-04-15T09:58:32;100876.53;;;10.93;100.00
65880;BME280;52661;51.364;6.054;2023-04-15T10:00:59;100878.09;;;10.98;100.00
65880;BME280;52661;51.364;6.054;2023-04-15T10:03:30;100885.88;;;11.03;100.00
65880;BME280;52661;51.364;6.054;2023-04-15T10:05:58;100881.16;;;10.93;100.00
65880;BME280;52661;51.364;6.054;2023-04-15T10:08:26;100888.94;;;10.94;100.00
65880;BME280;52661;51.364;6.054;2023-04-15T10:10:52;100894.34;;;10.83;100.00
65880;BME280;52661;51.364;6.054;2023-04-15T10:13:23;100891.63;;;10.80;100.00
65880;BME280;52661;51.364;6.054;2023-04-15T10:16:00;100898.22;;;10.75;100.00
65880;BME280;52661;51.364;6.054;2023-04-15T10:18:31;100907.50;;;10.74;100.00
65880;BME280;52661;51.364;6.054;2023-04-15T10:20:59;100901.72;;;10.76;100.00
65880;BME280;52661;51.364;6.054;2023-04-15T10:23:24;100904.06;;;10.84;100.00
65880;BME280;52661;51.364;6.054;2023-04-15T10:25:52;100902.16;;;10.92;100.00
65880;BME280;52661;51.364;6.054;2023-04-15T10:28:19;100912.63;;;11.04;100.00
65880;BME280;52661;51.364;6.054;2023-04-15T10:30:45;100914.56;;;11.11;100.00
65880;BME280;52661;51.364;6.054;2023-04-15T10:33:12;100919.25;;;11.10;100.00
65880;BME280;52661;51.364;6.054;2023-04-15T10:35:38;100911.84;;;11.14;100.00
65880;BME280;52661;51.364;6.054;2023-04-15T10:41:21;100916.91;;;11.26;100.00
65880;BME280;52661;51.364;6.054;2023-04-15T10:43:48;100908.75;;;11.26;100.00
65880;BME280;52661;51.364;6.054;2023-04-15T10:46:22;100911.09;;;11.28;100.00
65880;BME280;52661;51.364;6.054;2023-04-15T10:48:49;100918.84;;;11.33;100.00
65880;BME280;52661;51.364;6.054;2023-04-15T10:51:15;100923.53;;;11.54;100.00
65880;BME280;52661;51.364;6.054;2023-04-15T10:53:41;100932.06;;;11.59;100.00
65880;BME280;52661;51.364;6.054;2023-04-15T10:56:07;100927.75;;;11.62;100.00
65880;BME280;52661;51.364;6.054;2023-04-15T10:58:41;100913.44;;;11.75;100.00
65880;BME280;52661;51.364;6.054;2023-04-15T11:01:07;100922.34;;;11.72;100.00
65880;BME280;52661;51.364;6.054;2023-04-15T11:03:37;100926.63;;;11.80;100.00
65880;BME280;52661;51.364;6.054;2023-04-15T11:06:04;100933.19;;;11.83;98.78
65880;BME280;52661;51.364;6.054;2023-04-15T11:11:17;100932.03;;;11.88;100.00
65880;BME280;52661;51.364;6.054;2023-04-15T11:13:50;100936.66;;;12.19;100.00
65880;BME280;52661;51.364;6.054;2023-04-15T11:16:16;100931.56;;;12.21;100.00
65880;BME280;52661;51.364;6.054;2023-04-15T11:18:41;100928.72;;;12.49;100.00
65880;BME280;52661;51.364;6.054;2023-04-15T11:21:07;100937.34;;;12.30;100.00
65880;BME280;52661;51.364;6.054;2023-04-15T11:23:38;100935.03;;;12.36;100.00
65880;BME280;52661;51.364;6.054;2023-04-15T11:26:07;100923.78;;;12.23;100.00
65880;BME280;52661;51.364;6.054;2023-04-15T11:28:43;100939.75;;;12.17;100.00
65880;BME280;52661;51.364;6.054;2023-04-15T11:31:14;100948.69;;;12.21;100.00
65880;BME280;52661;51.364;6.054;2023-04-15T11:33:54;100952.19;;;12.15;100.00
65880;BME280;52661;51.364;6.054;2023-04-15T11:36:23;100951.00;;;12.23;100.00
65880;BME280;52661;51.364;6.054;2023-04-15T11:38:48;100962.59;;;12.41;100.00
65880;BME280;52661;51.364;6.054;2023-04-15T11:41:13;100965.78;;;12.25;100.00
65880;BME280;52661;51.364;6.054;2023-04-15T11:43:40;100961.81;;;12.48;100.00
65880;BME280;52661;51.364;6.054;2023-04-15T11:46:05;100959.06;;;12.58;100.00
65880;BME280;52661;51.364;6.054;2023-04-15T11:48:32;100959.38;;;12.67;100.00
65880;BME280;52661;51.364;6.054;2023-04-15T11:51:03;100961.22;;;12.88;100.00
65880;BME280;52661;51.364;6.054;2023-04-15T11:53:55;100956.66;;;12.71;100.00
65880;BME280;52661;51.364;6.054;2023-04-15T11:56:22;100976.16;;;12.52;95.05
65880;BME280;52661;51.364;6.054;2023-04-15T11:59:00;100975.00;;;12.56;96.60
65880;BME280;52661;51.364;6.054;2023-04-15T12:01:37;100966.38;;;12.68;99.60
65880;BME280;52661;51.364;6.054;2023-04-15T12:04:15;100978.09;;;12.58;99.50
65880;BME280;52661;51.364;6.054;2023-04-15T12:06:43;100986.28;;;12.58;97.25
65880;BME280;52661;51.364;6.054;2023-04-15T12:09:13;100990.44;;;12.84;95.08
65880;BME280;52661;51.364;6.054;2023-04-15T12:14:09;100983.47;;;12.79;95.13
65880;BME280;52661;51.364;6.054;2023-04-15T12:16:37;100990.69;;;13.14;97.04
65880;BME280;52661;51.364;6.054;2023-04-15T12:19:14;100976.03;;;13.46;99.75
65880;BME280;52661;51.364;6.054;2023-04-15T12:21:43;100994.00;;;13.43;97.90
65880;BME280;52661;51.364;6.054;2023-04-15T12:24:10;100993.81;;;13.02;94.31
65880;BME280;52661;51.364;6.054;2023-04-15T12:26:37;100995.47;;;12.86;94.84
65880;BME280;52661;51.364;6.054;2023-04-15T12:29:07;101004.59;;;12.51;92.81
65880;BME280;52661;51.364;6.054;2023-04-15T12:31:36;100992.00;;;12.78;97.77
65880;BME280;52661;51.364;6.054;2023-04-15T12:34:02;100995.00;;;13.05;97.00
65880;BME280;52661;51.364;6.054;2023-04-15T12:36:30;101002.38;;;13.08;94.46
65880;BME280;52661;51.364;6.054;2023-04-15T12:39:04;101011.34;;;13.05;94.04
65880;BME280;52661;51.364;6.054;2023-04-15T12:41:31;101015.41;;;12.72;94.77
65880;BME280;52661;51.364;6.054;2023-04-15T12:43:56;101009.97;;;12.68;96.41
65880;BME280;52661;51.364;6.054;2023-04-15T12:46:22;101013.81;;;12.74;94.93
65880;BME280;52661;51.364;6.054;2023-04-15T12:48:47;101016.78;;;13.15;96.67
65880;BME280;52661;51.364;6.054;2023-04-15T12:51:13;101023.06;;;13.64;96.05
65880;BME280;52661;51.364;6.054;2023-04-15T12:53:38;101023.19;;;13.94;87.60
65880;BME280;52661;51.364;6.054;2023-04-15T12:56:04;101018.00;;;13.62;89.92